sensor_id;sensor_type;location;lat;lon;timestamp;pressure;altitude;pressure_sealevel;temperature;humidity
53908;BME280;40469;47.998;7.794;2023-04-29T00:00:17;98738.97;;;13.93;100.00
53908;BME280;40469;47.998;7.794;2023-04-29T00:02:42;98738.22;;;13.89;100.00
53908;BME280;40469;47.998;7.794;2023-04-29T00:05:08;98736.78;;;13.76;100.00
53908;BME280;40469;47.998;7.794;2023-04-29T00:07:34;98738.56;;;13.75;100.00
53908;BME280;40469;47.998;7.794;2023-04-29T00:10:00;98734.31;;;13.71;100.00
53908;BME280;40469;47.998;7.794;2023-04-29T00:12:25;98729.06;;;13.71;100.00
53908;BME280;40469;47.998;7.794;2023-04-29T00:14:50;98726.16;;;13.82;100.00
53908;BME280;40469;47.998;7.794;2023-04-29T00:17:16;98719.25;;;13.78;100.00
53908;BME280;40469;47.998;7.794;2023-04-29T00:19:41;98723.56;;;13.80;100.00
53908;BME280;40469;47.998;7.794;2023-04-29T00:22:07;98719.97;;;13.83;100.00
53908;BME280;40469;47.998;7.794;2023-04-29T00:24:33;98727.81;;;13.84;100.00
53908;BME280;40469;47.998;7.794;2023-04-29T00:26:58;98729.69;;;13.79;100.00
53908;BME280;40469;47.998;7.794;2023-04-29T00:29:23;98722.88;;;13.74;100.00
53908;BME280;40469;47.998;7.794;2023-04-29T00:31:49;98731.63;;;13.73;100.00
53908;BME280;40469;47.998;7.794;2023-04-29T00:34:14;98723.75;;;13.73;100.00
53908;BME280;40469;47.998;7.794;2023-04-29T00:36:39;98720.25;;;13.74;100.00
53908;BME280;40469;47.998;7.794;2023-04-29T00:39:04;98718.47;;;13.74;100.00
53908;BME280;40469;47.998;7.794;2023-04-29T00:41:29;98720.13;;;13.78;100.00
53908;BME280;40469;47.998;7.794;2023-04-29T00:43:56;98718.31;;;13.80;100.00
53908;BME280;40469;47.998;7.794;2023-04-29T00:46:21;98715.59;;;13.83;100.00
53908;BME280;40469;47.998;7.794;2023-04-29T00:48:46;98716.50;;;13.82;100.00
53908;BME280;40469;47.998;7.794;2023-04-29T00:51:11;98704.28;;;13.81;100.00
53908;BME280;40469;47.998;7.794;2023-04-29T00:53:37;98711.19;;;13.86;100.00
53908;BME280;40469;47.998;7.794;2023-04-29T00:56:03;98711.28;;;13.81;100.00
53908;BME280;40469;47.998;7.794;2023-04-29T00:58:28;98713.03;;;13.82;100.00
53908;BME280;40469;47.998;7.794;2023-04-29T01:01:00;98720.06;;;13.80;100.00
53908;BME280;40469;47.998;7.794;2023-04-29T01:03:27;98713.91;;;13.81;100.00
53908;BME280;40469;47.998;7.794;2023-04-29T01:05:54;98714.88;;;13.78;100.00
53908;BME280;40469;47.998;7.794;2023-04-29T01:11:27;98710.75;;;13.70;100.00
53908;BME280;40469;47.998;7.794;2023-04-29T01:13:58;98713.16;;;13.77;100.00
53908;BME280;40469;47.998;7.794;2023-04-29T01:16:39;98720.94;;;13.80;100.00
53908;BME280;40469;47.998;7.794;2023-04-29T01:19:15;98714.81;;;13.80;100.00
53908;BME280;40469;47.998;7.794;2023-04-29T01:21:45;98713.16;;;13.77;100.00
53908;BME280;40469;47.998;7.794;2023-04-29T01:24:12;98719.28;;;13.76;100.00
53908;BME280;40469;47.998;7.794;2023-04-29T01:26:38;98719.22;;;13.79;100.00
53908;BME280;40469;47.998;7.794;2023-04-29T01:31:42;98713.22;;;13.74;100.00
53908;BME280;40469;47.998;7.794;2023-04-29T01:34:18;98710.59;;;13.74;100.00
53908;BME280;40469;47.998;7.794;2023-04-29T01:37:03;98706.31;;;13.72;100.00
53908;BME280;40469;47.998;7.794;2023-04-29T01:44:52;98703.72;;;13.70;100.00
53908;BME280;40469;47.998;7.794;2023-04-29T01:47:19;98708.72;;;13.79;100.00
53908;BME280;40469;47.998;7.794;2023-04-29T01:49:44;98706.22;;;13.75;100.00
53908;BME280;40469;47.998;7.794;2023-04-29T01:52:11;98713.25;;;13.73;100.00
53908;BME280;40469;47.998;7.794;2023-04-29T01:54:36;98713.66;;;13.59;100.00
53908;BME280;40469;47.998;7.794;2023-04-29T01:57:02;98710.56;;;13.43;100.00
53908;BME280;40469;47.998;7.794;2023-04-29T01:59:27;98706.63;;;13.23;100.00
53908;BME280;40469;47.998;7.794;2023-04-29T02:01:52;98704.19;;;13.16;100.00
53908;BME280;40469;47.998;7.794;2023-04-29T02:04:18;98702.53;;;13.13;100.00
53908;BME280;40469;47.998;7.794;2023-04-29T02:06:43;98700.06;;;13.05;100.00
53908;BME280;40469;47.998;7.794;2023-04-29T02:09:08;98696.69;;;13.00;100.00
53908;BME280;40469;47.998;7.794;2023-04-29T02:11:33;98707.19;;;13.00;100.00
53908;BME280;40469;47.998;7.794;2023-04-29T02:13:59;98710.78;;;12.96;100.00
53908;BME280;40469;47.998;7.794;2023-04-29T02:16:24;98706.53;;;12.90;100.00
53908;BME280;40469;47.998;7.794;2023-04-29T02:18:49;98709.94;;;12.96;100.00
53908;BME280;40469;47.998;7.794;2023-04-29T02:21:14;98714.34;;;12.94;100.00
53908;BME280;40469;47.998;7.794;2023-04-29T02:23:40;98710.72;;;12.99;100.00
53908;BME280;40469;47.998;7.794;2023-04-29T02:26:05;98713.41;;;12.96;100.00
53908;BME280;40469;47.998;7.794;2023-04-29T02:28:31;98714.16;;;13.01;100.00
53908;BME280;40469;47.998;7.794;2023-04-29T02:30:57;98713.09;;;13.08;100.00
53908;BME280;40469;47.998;7.794;2023-04-29T02:33:22;98713.88;;;13.12;100.00
53908;BME280;40469;47.998;7.794;2023-04-29T02:35:47;98713.00;;;13.13;100.00
53908;BME280;40469;47.998;7.794;2023-04-29T02:38:13;98711.44;;;13.06;100.00
53908;BME280;40469;47.998;7.794;2023-04-29T02:40:41;98713.25;;;13.02;100.00
53908;BME280;40469;47.998;7.794;2023-04-29T02:43:07;98716.69;;;13.06;100.00
53908;BME280;40469;47.998;7.794;2023-04-29T02:45:32;98712.25;;;13.08;100.00
53908;BME280;40469;47.998;7.794;2023-04-29T02:47:57;98726.28;;;13.05;100.00
53908;BME280;40469;47.998;7.794;2023-04-29T02:50:23;98717.56;;;13.05;100.00
53908;BME280;40469;47.998;7.794;2023-04-29T02:52:49;98713.16;;;13.05;100.00
53908;BME280;40469;47.998;7.794;2023-04-29T02:55:14;98714.94;;;13.05;100.00
53908;BME280;40469;47.998;7.794;2023-04-29T02:57:40;98715.72;;;13.08;100.00
53908;BME280;40469;47.998;7.794;2023-04-29T03:00:06;98717.47;;;13.09;100.00
53908;BME280;40469;47.998;7.794;2023-04-29T03:02:31;98713.88;;;13.12;100.00
53908;BME280;40469;47.998;7.794;2023-04-29T03:04:57;98715.59;;;13.15;100.00
53908;BME280;40469;47.998;7.794;2023-04-29T03:07:22;98710.56;;;13.05;100.00
53908;BME280;40469;47.998;7.794;2023-04-29T03:09:47;98721.16;;;13.01;100.00
53908;BME280;40469;47.998;7.794;2023-04-29T03:12:12;98720.38;;;12.97;100.00
53908;BME280;40469;47.998;7.794;2023-04-29T03:14:38;98717.81;;;12.94;100.00
53908;BME280;40469;47.998;7.794;2023-04-29T03:17:03;98711.72;;;12.94;100.00
53908;BME280;40469;47.998;7.794;2023-04-29T03:19:28;98703.69;;;13.00;100.00
53908;BME280;40469;47.998;7.794;2023-04-29T03:21:54;98709.69;;;13.05;100.00
53908;BME280;40469;47.998;7.794;2023-04-29T03:24:19;98713.09;;;13.08;100.00
53908;BME280;40469;47.998;7.794;2023-04-29T03:26:45;98720.09;;;13.09;100.00
53908;BME280;40469;47.998;7.794;2023-04-29T03:29:10;98710.59;;;13.04;100.00
53908;BME280;40469;47.998;7.794;2023-04-29T03:31:35;98703.63;;;13.03;100.00
53908;BME280;40469;47.998;7.794;2023-04-29T03:34:01;98704.66;;;12.97;100.00
53908;BME280;40469;47.998;7.794;2023-04-29T03:36:26;98712.56;;;12.94;100.00
53908;BME280;40469;47.998;7.794;2023-04-29T03:38:52;98719.75;;;12.86;100.00
53908;BME280;40469;47.998;7.794;2023-04-29T03:41:17;98711.00;;;12.87;100.00
53908;BME280;40469;47.998;7.794;2023-04-29T03:43:42;98721.47;;;12.87;100.00
53908;BME280;40469;47.998;7.794;2023-04-29T03:46:10;98718.81;;;12.88;100.00
53908;BME280;40469;47.998;7.794;2023-04-29T03:48:36;98714.72;;;12.77;100.00
53908;BME280;40469;47.998;7.794;2023-04-29T03:51:02;98720.78;;;12.79;100.00
53908;BME280;40469;47.998;7.794;2023-04-29T03:53:28;98712.72;;;12.86;100.00
53908;BME280;40469;47.998;7.794;2023-04-29T03:55:54;98719.72;;;12.87;100.00
53908;BME280;40469;47.998;7.794;2023-04-29T03:58:20;98719.72;;;12.87;100.00
53908;BME280;40469;47.998;7.794;2023-04-29T04:00:45;98718.81;;;12.88;100.00
53908;BME280;40469;47.998;7.794;2023-04-29T04:03:10;98718.94;;;12.82;100.00
53908;BME280;40469;47.998;7.794;2023-04-29T04:05:35;98722.53;;;12.78;100.00
53908;BME280;40469;47.998;7.794;2023-04-29T04:08:01;98727.84;;;12.75;100.00
53908;BME280;40469;47.998;7.794;2023-04-29T04:10:26;98724.47;;;12.70;100.00
53908;BME280;40469;47.998;7.794;2023-04-29T04:12:52;98719.22;;;12.70;100.00
53908;BME280;40469;47.998;7.794;2023-04-29T04:15:17;98723.53;;;12.74;100.00
53908;BME280;40469;47.998;7.794;2023-04-29T04:17:43;98723.47;;;12.76;100.00
53908;BME280;40469;47.998;7.794;2023-04-29T04:20:08;98726.84;;;12.81;100.00
53908;BME280;40469;47.998;7.794;2023-04-29T04:22:34;98726.94;;;12.78;100.00
53908;BME280;40469;47.998;7.794;2023-04-29T04:24:59;98732.97;;;12.81;100.00
53908;BME280;40469;47.998;7.794;2023-04-29T04:27:24;98738.22;;;12.81;100.00
53908;BME280;40469;47.998;7.794;2023-04-29T04:29:53;98741.78;;;12.77;100.00
53908;BME280;40469;47.998;7.794;2023-04-29T04:32:19;98737.47;;;12.75;100.00
53908;BME280;40469;47.998;7.794;2023-04-29T04:34:44;98742.66;;;12.78;100.00
53908;BME280;40469;47.998;7.794;2023-04-29T04:37:09;98746.16;;;12.77;100.00
53908;BME280;40469;47.998;7.794;2023-04-29T04:39:35;98754.03;;;12.75;100.00
53908;BME280;40469;47.998;7.794;2023-04-29T04:42:01;98751.47;;;12.74;100.00
53908;BME280;40469;47.998;7.794;2023-04-29T04:44:27;98759.34;;;12.72;100.00
53908;BME280;40469;47.998;7.794;2023-04-29T04:46:53;98758.56;;;12.68;100.00
53908;BME280;40469;47.998;7.794;2023-04-29T04:49:18;98769.19;;;12.62;100.00
53908;BME280;40469;47.998;7.794;2023-04-29T04:51:43;98762.25;;;12.58;100.00
53908;BME280;40469;47.998;7.794;2023-04-29T04:54:09;98763.97;;;12.61;100.00
53908;BME280;40469;47.998;7.794;2023-04-29T04:56:34;98768.31;;;12.62;100.00
53908;BME280;40469;47.998;7.794;2023-04-29T04:59:01;98774.28;;;12.67;100.00
53908;BME280;40469;47.998;7.794;2023-04-29T05:01:26;98781.31;;;12.66;100.00
53908;BME280;40469;47.998;7.794;2023-04-29T05:03:52;98780.41;;;12.67;100.00
53908;BME280;40469;47.998;7.794;2023-04-29T05:06:17;98784.72;;;12.70;100.00
53908;BME280;40469;47.998;7.794;2023-04-29T05:08:42;98792.53;;;12.71;100.00
53908;BME280;40469;47.998;7.794;2023-04-29T05:11:17;98798.66;;;12.70;100.00
53908;BME280;40469;47.998;7.794;2023-04-29T05:13:42;98799.56;;;12.71;100.00
53908;BME280;40469;47.998;7.794;2023-04-29T05:16:07;98803.88;;;12.72;100.00
53908;BME280;40469;47.998;7.794;2023-04-29T05:18:33;98801.44;;;12.64;100.00
53908;BME280;40469;47.998;7.794;2023-04-29T05:20:58;98810.28;;;12.59;100.00
53908;BME280;40469;47.998;7.794;2023-04-29T05:23:24;98806.72;;;12.61;100.00
53908;BME280;40469;47.998;7.794;2023-04-29T05:25:49;98808.50;;;12.61;100.00
53908;BME280;40469;47.998;7.794;2023-04-29T05:28:14;98815.53;;;12.59;100.00
53908;BME280;40469;47.998;7.794;2023-04-29T05:30:39;98817.31;;;12.57;100.00
53908;BME280;40469;47.998;7.794;2023-04-29T05:33:05;98819.84;;;12.60;100.00
53908;BME280;40469;47.998;7.794;2023-04-29T05:35:30;98815.50;;;12.60;100.00
53908;BME280;40469;47.998;7.794;2023-04-29T05:37:56;98812.06;;;12.57;100.00
53908;BME280;40469;47.998;7.794;2023-04-29T05:40:21;98819.13;;;12.53;100.00
53908;BME280;40469;47.998;7.794;2023-04-29T05:42:47;98822.59;;;12.54;100.00
53908;BME280;40469;47.998;7.794;2023-04-29T05:45:13;98830.50;;;12.52;100.00
53908;BME280;40469;47.998;7.794;2023-04-29T05:47:38;98840.91;;;12.55;100.00
53908;BME280;40469;47.998;7.794;2023-04-29T05:50:03;98848.75;;;12.57;100.00
53908;BME280;40469;47.998;7.794;2023-04-29T05:52:29;98858.25;;;12.61;100.00
53908;BME280;40469;47.998;7.794;2023-04-29T05:54:54;98866.09;;;12.62;100.00
53908;BME280;40469;47.998;7.794;2023-04-29T05:57:20;98872.16;;;12.64;100.00
53908;BME280;40469;47.998;7.794;2023-04-29T05:59:45;98874.69;;;12.69;100.00
53908;BME280;40469;47.998;7.794;2023-04-29T06:02:10;98879.19;;;12.62;100.00
53908;BME280;40469;47.998;7.794;2023-04-29T06:04:36;98885.28;;;12.61;100.00
53908;BME280;40469;47.998;7.794;2023-04-29T06:07:01;98887.03;;;12.62;100.00
53908;BME280;40469;47.998;7.794;2023-04-29T06:09:28;98890.59;;;12.58;100.00
53908;BME280;40469;47.998;7.794;2023-04-29T06:11:53;98893.22;;;12.58;100.00
53908;BME280;40469;47.998;7.794;2023-04-29T06:14:19;98896.59;;;12.63;100.00
53908;BME280;40469;47.998;7.794;2023-04-29T06:16:44;98899.09;;;12.71;100.00
53908;BME280;40469;47.998;7.794;2023-04-29T06:19:09;98901.56;;;12.77;100.00
53908;BME280;40469;47.998;7.794;2023-04-29T06:21:34;98905.81;;;12.83;100.00
53908;BME280;40469;47.998;7.794;2023-04-29T06:24:00;98905.69;;;12.90;100.00
53908;BME280;40469;47.998;7.794;2023-04-29T06:26:25;98900.28;;;12.98;100.00
53908;BME280;40469;47.998;7.794;2023-04-29T06:28:50;98902.75;;;13.06;100.00
53908;BME280;40469;47.998;7.794;2023-04-29T06:31:16;98913.09;;;13.14;100.00
53908;BME280;40469;47.998;7.794;2023-04-29T06:33:41;98915.66;;;13.17;100.00
53908;BME280;40469;47.998;7.794;2023-04-29T06:36:07;98912.06;;;13.21;100.00
53908;BME280;40469;47.998;7.794;2023-04-29T06:38:32;98913.66;;;13.26;100.00
53908;BME280;40469;47.998;7.794;2023-04-29T06:40:57;98914.59;;;13.25;100.00
53908;BME280;40469;47.998;7.794;2023-04-29T06:43:27;98909.25;;;13.28;100.00
53908;BME280;40469;47.998;7.794;2023-04-29T06:45:52;98910.13;;;13.29;100.00
53908;BME280;40469;47.998;7.794;2023-04-29T06:48:18;98914.28;;;13.39;100.00
53908;BME280;40469;47.998;7.794;2023-04-29T06:53:14;98916.97;;;13.38;100.00
53908;BME280;40469;47.998;7.794;2023-04-29T06:55:39;98914.16;;;13.47;100.00
53908;BME280;40469;47.998;7.794;2023-04-29T06:58:05;98911.53;;;13.47;100.00
53908;BME280;40469;47.998;7.794;2023-04-29T07:00:30;98912.19;;;13.55;100.00
53908;BME280;40469;47.998;7.794;2023-04-29T07:02:56;98915.53;;;13.62;100.00
53908;BME280;40469;47.998;7.794;2023-04-29T07:05:21;98908.47;;;13.65;100.00
53908;BME280;40469;47.998;7.794;2023-04-29T07:07:47;98917.06;;;13.72;100.00
53908;BME280;40469;47.998;7.794;2023-04-29T07:10:12;98917.84;;;13.76;100.00
53908;BME280;40469;47.998;7.794;2023-04-29T07:12:37;98923.91;;;13.78;100.00
53908;BME280;40469;47.998;7.794;2023-04-29T07:15:02;98916.88;;;13.80;100.00
53908;BME280;40469;47.998;7.794;2023-04-29T07:17:28;98927.22;;;13.86;100.00
53908;BME280;40469;47.998;7.794;2023-04-29T07:19:54;98938.53;;;13.90;100.00
53908;BME280;40469;47.998;7.794;2023-04-29T07:22:19;98933.72;;;14.07;100.00
53908;BME280;40469;47.998;7.794;2023-04-29T07:24:44;98934.16;;;14.26;100.00
53908;BME280;40469;47.998;7.794;2023-04-29T07:27:09;98942.28;;;14.50;100.00
53908;BME280;40469;47.998;7.794;2023-04-29T07:29:35;98946.53;;;14.54;100.00
53908;BME280;40469;47.998;7.794;2023-04-29T07:32:00;98951.34;;;14.72;100.00
53908;BME280;40469;47.998;7.794;2023-04-29T07:34:25;98953.06;;;14.73;100.00
53908;BME280;40469;47.998;7.794;2023-04-29T07:36:50;98949.50;;;14.76;100.00
53908;BME280;40469;47.998;7.794;2023-04-29T07:39:16;98951.50;;;14.66;100.00
53908;BME280;40469;47.998;7.794;2023-04-29T07:41:42;98947.03;;;14.70;100.00
53908;BME280;40469;47.998;7.794;2023-04-29T07:44:07;98949.75;;;14.67;100.00
53908;BME280;40469;47.998;7.794;2023-04-29T07:46:32;98956.88;;;14.63;100.00
53908;BME280;40469;47.998;7.794;2023-04-29T07:48:58;98955.88;;;14.67;100.00
53908;BME280;40469;47.998;7.794;2023-04-29T07:51:23;98950.94;;;14.88;100.00
53908;BME280;40469;47.998;7.794;2023-04-29T07:53:48;98955.91;;;14.98;100.00
53908;BME280;40469;47.998;7.794;2023-04-29T07:56:13;98958.44;;;15.02;100.00
53908;BME280;40469;47.998;7.794;2023-04-29T07:58:38;98956.66;;;15.04;100.00
53908;BME280;40469;47.998;7.794;2023-04-29T08:01:05;98966.81;;;15.16;100.00
53908;BME280;40469;47.998;7.794;2023-04-29T08:03:31;98961.56;;;15.16;100.00
53908;BME280;40469;47.998;7.794;2023-04-29T08:05:59;98960.88;;;15.09;100.00
53908;BME280;40469;47.998;7.794;2023-04-29T08:08:25;98965.31;;;15.07;100.00
53908;BME280;40469;47.998;7.794;2023-04-29T08:10:50;98968.38;;;15.23;100.00
53908;BME280;40469;47.998;7.794;2023-04-29T08:13:16;98970.63;;;15.35;100.00
53908;BME280;40469;47.998;7.794;2023-04-29T08:15:41;98966.50;;;15.57;100.00
53908;BME280;40469;47.998;7.794;2023-04-29T08:18:06;98961.91;;;15.63;100.00
53908;BME280;40469;47.998;7.794;2023-04-29T08:20:32;98961.75;;;15.40;100.00
53908;BME280;40469;47.998;7.794;2023-04-29T08:22:57;98953.81;;;15.41;100.00
53908;BME280;40469;47.998;7.794;2023-04-29T08:25:23;98959.31;;;15.62;100.00
53908;BME280;40469;47.998;7.794;2023-04-29T08:27:50;98964.53;;;15.63;100.00
53908;BME280;40469;47.998;7.794;2023-04-29T08:30:16;98972.22;;;15.71;100.00
53908;BME280;40469;47.998;7.794;2023-04-29T08:32:41;98960.72;;;15.75;100.00
53908;BME280;40469;47.998;7.794;2023-04-29T08:35:07;98963.97;;;15.83;100.00
53908;BME280;40469;47.998;7.794;2023-04-29T08:37:32;98955.91;;;15.88;100.00
53908;BME280;40469;47.998;7.794;2023-04-29T08:39:57;98953.22;;;15.89;100.00
53908;BME280;40469;47.998;7.794;2023-04-29T08:42:31;98958.09;;;15.73;100.00
53908;BME280;40469;47.998;7.794;2023-04-29T08:44:57;98955.69;;;15.66;100.00
53908;BME280;40469;47.998;7.794;2023-04-29T08:47:24;98953.03;;;15.67;100.00
53908;BME280;40469;47.998;7.794;2023-04-29T08:49:49;98947.59;;;15.72;100.00
53908;BME280;40469;47.998;7.794;2023-04-29T08:52:15;98949.22;;;15.78;100.00
53908;BME280;40469;47.998;7.794;2023-04-29T08:54:40;98950.97;;;15.77;100.00
53908;BME280;40469;47.998;7.794;2023-04-29T08:57:05;98941.09;;;15.85;100.00
53908;BME280;40469;47.998;7.794;2023-04-29T08:59:31;98945.94;;;15.69;100.00
53908;BME280;40469;47.998;7.794;2023-04-29T09:01:56;98950.22;;;15.72;100.00
53908;BME280;40469;47.998;7.794;2023-04-29T09:04:36;98953.91;;;15.66;100.00
53908;BME280;40469;47.998;7.794;2023-04-29T09:07:05;98953.09;;;15.64;100.00
53908;BME280;40469;47.998;7.794;2023-04-29T09:09:31;98954.00;;;15.63;100.00
53908;BME280;40469;47.998;7.794;2023-04-29T09:11:57;98954.59;;;15.75;100.00
53908;BME280;40469;47.998;7.794;2023-04-29T09:14:24;98954.81;;;15.95;100.00
53908;BME280;40469;47.998;7.794;2023-04-29T09:16:49;98953.22;;;15.89;100.00
53908;BME280;40469;47.998;7.794;2023-04-29T09:19:32;98957.56;;;16.19;100.00
53908;BME280;40469;47.998;7.794;2023-04-29T09:21:58;98951.59;;;16.40;100.00
53908;BME280;40469;47.998;7.794;2023-04-29T09:24:25;98952.66;;;16.35;100.00
53908;BME280;40469;47.998;7.794;2023-04-29T09:26:51;98956.28;;;16.30;100.00
53908;BME280;40469;47.998;7.794;2023-04-29T09:29:17;98952.22;;;16.22;100.00
53908;BME280;40469;47.998;7.794;2023-04-29T09:31:43;98960.66;;;16.32;100.00
53908;BME280;40469;47.998;7.794;2023-04-29T09:34:09;98953.47;;;16.37;100.00
53908;BME280;40469;47.998;7.794;2023-04-29T09:39:02;98951.34;;;16.46;100.00
53908;BME280;40469;47.998;7.794;2023-04-29T09:41:29;98948.69;;;16.48;100.00
53908;BME280;40469;47.998;7.794;2023-04-29T09:44:07;98947.06;;;16.69;100.00
53908;BME280;40469;47.998;7.794;2023-04-29T09:46:33;98947.06;;;16.69;100.00
53908;BME280;40469;47.998;7.794;2023-04-29T09:48:59;98958.03;;;16.83;100.00
53908;BME280;40469;47.998;7.794;2023-04-29T09:51:24;98948.56;;;16.76;100.00
53908;BME280;40469;47.998;7.794;2023-04-29T09:53:50;98940.91;;;16.70;100.00
53908;BME280;40469;47.998;7.794;2023-04-29T09:56:15;98950.38;;;16.76;100.00
53908;BME280;40469;47.998;7.794;2023-04-29T09:58:40;98949.09;;;16.88;100.00
53908;BME280;40469;47.998;7.794;2023-04-29T10:01:06;98949.00;;;16.91;100.00
53908;BME280;40469;47.998;7.794;2023-04-29T10:05:57;98943.34;;;17.01;100.00
53908;BME280;40469;47.998;7.794;2023-04-29T10:08:24;98958.22;;;16.77;100.00
53908;BME280;40469;47.998;7.794;2023-04-29T10:10:51;98951.50;;;16.68;100.00
53908;BME280;40469;47.998;7.794;2023-04-29T10:13:23;98943.59;;;16.68;100.00
53908;BME280;40469;47.998;7.794;2023-04-29T10:15:50;98944.69;;;16.88;100.00
53908;BME280;40469;47.998;7.794;2023-04-29T10:18:20;98949.06;;;16.89;100.00
53908;BME280;40469;47.998;7.794;2023-04-29T10:20:46;98946.47;;;16.88;100.00
53908;BME280;40469;47.998;7.794;2023-04-29T10:23:12;98949.66;;;17.21;100.00
53908;BME280;40469;47.998;7.794;2023-04-29T10:25:39;98952.53;;;17.38;100.00
53908;BME280;40469;47.998;7.794;2023-04-29T10:28:08;98945.84;;;17.52;100.00
53908;BME280;40469;47.998;7.794;2023-04-29T10:30:33;98949.78;;;17.87;100.00
53908;BME280;40469;47.998;7.794;2023-04-29T10:33:00;98945.91;;;18.38;100.00
53908;BME280;40469;47.998;7.794;2023-04-29T10:35:26;98932.41;;;18.46;100.00
53908;BME280;40469;47.998;7.794;2023-04-29T10:40:23;98939.47;;;19.26;100.00
53908;BME280;40469;47.998;7.794;2023-04-29T10:42:53;98937.25;;;19.55;100.00
53908;BME280;40469;47.998;7.794;2023-04-29T10:45:22;98928.94;;;19.25;100.00
53908;BME280;40469;47.998;7.794;2023-04-29T10:50:59;98940.13;;;18.51;100.00
53908;BME280;40469;47.998;7.794;2023-04-29T10:53:25;98934.50;;;19.00;100.00
53908;BME280;40469;47.998;7.794;2023-04-29T10:55:58;98926.97;;;19.30;100.00
53908;BME280;40469;47.998;7.794;2023-04-29T10:58:38;98923.66;;;19.44;100.00
53908;BME280;40469;47.998;7.794;2023-04-29T11:01:04;98922.88;;;19.42;100.00
53908;BME280;40469;47.998;7.794;2023-04-29T11:04:00;98934.03;;;19.29;100.00
53908;BME280;40469;47.998;7.794;2023-04-29T11:09:00;98926.69;;;19.36;100.00
53908;BME280;40469;47.998;7.794;2023-04-29T11:11:31;98925.81;;;19.55;100.00
53908;BME280;40469;47.998;7.794;2023-04-29T11:14:03;98910.59;;;19.79;100.00
53908;BME280;40469;47.998;7.794;2023-04-29T11:16:29;98920.75;;;19.31;100.00
53908;BME280;40469;47.998;7.794;2023-04-29T11:19:07;98913.56;;;19.90;100.00
53908;BME280;40469;47.998;7.794;2023-04-29T11:21:37;98916.97;;;19.92;100.00
53908;BME280;40469;47.998;7.794;2023-04-29T11:24:03;98910.88;;;20.26;100.00
53908;BME280;40469;47.998;7.794;2023-04-29T11:26:31;98911.75;;;19.91;100.00
53908;BME280;40469;47.998;7.794;2023-04-29T11:28:56;98909.75;;;19.96;100.00
53908;BME280;40469;47.998;7.794;2023-04-29T11:31:26;98908.50;;;19.85;100.00
53908;BME280;40469;47.998;7.794;2023-04-29T11:33:53;98913.53;;;19.71;100.00
53908;BME280;40469;47.998;7.794;2023-04-29T11:36:18;98913.69;;;19.87;100.00
53908;BME280;40469;47.998;7.794;2023-04-29T11:38:44;98904.16;;;20.19;100.00
53908;BME280;40469;47.998;7.794;2023-04-29T11:41:10;98908.47;;;20.39;100.00
53908;BME280;40469;47.998;7.794;2023-04-29T11:43:35;98908.38;;;20.41;100.00
53908;BME280;40469;47.998;7.794;2023-04-29T11:46:10;98904.56;;;20.46;100.00
53908;BME280;40469;47.998;7.794;2023-04-29T11:48:35;98908.09;;;20.30;100.00
53908;BME280;40469;47.998;7.794;2023-04-29T11:51:01;98906.06;;;20.35;100.00
53908;BME280;40469;47.998;7.794;2023-04-29T11:53:26;98906.47;;;20.08;100.00
53908;BME280;40469;47.998;7.794;2023-04-29T11:55:54;98901.44;;;20.38;100.00
53908;BME280;40469;47.998;7.794;2023-04-29T11:58:20;98902.94;;;20.44;100.00
53908;BME280;40469;47.998;7.794;2023-04-29T12:00:46;98897.94;;;20.73;100.00
53908;BME280;40469;47.998;7.794;2023-04-29T12:03:18;98888.78;;;20.61;100.00
53908;BME280;40469;47.998;7.794;2023-04-29T12:05:50;98896.19;;;20.72;100.00
53908;BME280;40469;47.998;7.794;2023-04-29T12:08:23;98894.09;;;21.12;100.00
53908;BME280;40469;47.998;7.794;2023-04-29T12:10:49;98892.38;;;21.11;100.00
53908;BME280;40469;47.998;7.794;2023-04-29T12:13:18;98879.59;;;21.17;100.00
53908;BME280;40469;47.998;7.794;2023-04-29T12:15:44;98894.75;;;20.99;100.00
53908;BME280;40469;47.998;7.794;2023-04-29T12:18:10;98889.09;;;20.90;100.00
53908;BME280;40469;47.998;7.794;2023-04-29T12:20:36;98894.06;;;20.96;100.00
53908;BME280;40469;47.998;7.794;2023-04-29T12:23:18;98900.06;;;20.99;100.00
53908;BME280;40469;47.998;7.794;2023-04-29T12:25:58;98887.16;;;20.58;100.00
53908;BME280;40469;47.998;7.794;2023-04-29T12:28:24;98897.59;;;21.12;100.00
53908;BME280;40469;47.998;7.794;2023-04-29T12:30:51;98888.72;;;20.62;100.00
53908;BME280;40469;47.998;7.794;2023-04-29T12:33:18;98893.00;;;21.32;100.00
53908;BME280;40469;47.998;7.794;2023-04-29T12:35:46;98892.84;;;21.51;100.00
53908;BME280;40469;47.998;7.794;2023-04-29T12:38:14;98892.44;;;21.58;100.00
53908;BME280;40469;47.998;7.794;2023-04-29T12:40:40;98886.81;;;21.95;100.00
53908;BME280;40469;47.998;7.794;2023-04-29T12:43:06;98895.50;;;21.51;100.00
53908;BME280;40469;47.998;7.794;2023-04-29T12:45:32;98900.56;;;22.33;100.00
53908;BME280;40469;47.998;7.794;2023-04-29T12:47:58;98905.97;;;22.16;100.00
53908;BME280;40469;47.998;7.794;2023-04-29T12:50:31;98897.53;;;21.93;100.00
53908;BME280;40469;47.998;7.794;2023-04-29T12:53:00;98893.94;;;20.81;100.00
53908;BME280;40469;47.998;7.794;2023-04-29T12:55:25;98900.56;;;20.55;100.00
53908;BME280;40469;47.998;7.794;2023-04-29T12:57:51;98897.47;;;20.30;100.00
53908;BME280;40469;47.998;7.794;2023-04-29T13:00:16;98896.09;;;20.91;100.00
53908;BME280;40469;47.998;7.794;2023-04-29T13:02:42;98901.25;;;20.94;100.00
53908;BME280;40469;47.998;7.794;2023-04-29T13:05:07;98903.28;;;20.89;100.00
53908;BME280;40469;47.998;7.794;2023-04-29T13:07:33;98908.00;;;20.99;100.00
53908;BME280;40469;47.998;7.794;2023-04-29T13:09:58;98899.47;;;20.77;100.00
53908;BME280;40469;47.998;7.794;2023-04-29T13:12:23;98902.28;;;20.91;100.00